Time;durP1;ratioP1;P1;durP2;ratioP2;P2;SDS_P1;SDS_P2;PMS_P1;PMS_P2;Temp;Humidity;BMP_temperature;BMP_pressure;BME280_temperature;BME280_humidity;BME280_pressure;Samples;Min_cycle;Max_cycle;Signal;HPM_P1;HPM_P2
2023/06/25 00:00:44;;;;;;;;;;;;;;;;;;5062511;28;45815;-68
2023/06/25 00:03:10;;;;;;;;;;;;;;;;;;5055612;28;45560;-68
2023/06/25 00:05:36;;;;;;;;;;;;;;;;;;5065816;28;46556;-68
2023/06/25 00:08:02;;;;;;;;;;;;;;;;;;5065576;28;45832;-68
2023/06/25 00:10:29;;;;;;;;;;;;;;;;;;5065882;28;43571;-68
2023/06/25 00:12:55;;;;;;;;;;;;;;;;;;5065022;28;46354;-69
2023/06/25 00:15:21;;;;;;;;;;;;;;;;;;5065456;28;46970;-69
2023/06/25 00:17:49;;;;;;;;;;;;;;;;;;5049174;28;44963;-68
2023/06/25 00:20:15;;;;;;;;;;;;;;;;;;5064928;28;46816;-68
2023/06/25 00:22:42;;;;;;;;;;;;;;;;;;5046863;28;44492;-68
2023/06/25 00:25:16;;;;;;;;;;;;;;;;;;5045034;28;44002;-69
2023/06/25 00:27:47;;;;;;;;;;;;;;;;;;5045622;28;46245;-69
2023/06/25 00:30:13;;;;;;;;;;;;;;;;;;5046132;28;45172;-68
2023/06/25 00:32:39;;;;;;;;;;;;;;;;;;5063548;28;45814;-68
2023/06/25 00:35:06;;;;;;;;;;;;;;;;;;5065495;28;47593;-69
2023/06/25 00:37:36;;;;;;;;;;;;;;;;;;5065597;28;44118;-68
2023/06/25 00:40:03;;;;;;;;;;;;;;;;;;5065662;28;45624;-68
2023/06/25 00:42:33;;;;;;;;;;;;;;;;;;5045281;28;47387;-68
2023/06/25 00:45:00;;;;;;;;;;;;;;;;;;5044358;28;45362;-69
2023/06/25 00:47:26;;;;;;;;;;;;;;;;;;5042069;28;45409;-68
2023/06/25 00:49:53;;;;;;;;;;;;;;;;;;5044475;28;45084;-68
2023/06/25 00:52:20;;;;;;;;;;;;;;;;;;5045218;28;45605;-68
2023/06/25 00:54:46;;;;;;;;;;;;;;;;;;5045403;28;47283;-68
2023/06/25 00:57:15;;;;;;;;;;;;;;;;;;5045063;28;42736;-68
2023/06/25 00:59:41;;;;;;;;;;;;;;;;;;5044737;28;46784;-68
2023/06/25 01:02:09;;;;;;;;;;;;;;;;;;5043806;28;44939;-68
2023/06/25 01:04:36;;;;;;;;;;;;;;;;;;5043815;28;44196;-68
2023/06/25 01:07:02;;;;;;;;;;;;;;;;;;5045593;28;45323;-68
2023/06/25 01:09:28;;;;;;;;;;;;;;;;;;5044748;28;44802;-68
2023/06/25 01:11:55;;;;;;;;;;;;;;;;;;5043359;28;45521;-69
2023/06/25 01:14:27;;;;;;;;;;;;;;;;;;5044798;28;45813;-68
2023/06/25 01:16:53;;;;;;;;;;;;;;;;;;5045530;28;43558;-67
2023/06/25 01:19:20;;;;;;;;;;;;;;;;;;5044334;28;45313;-67
2023/06/25 01:21:46;;;;;;;;;;;;;;;;;;5045146;28;44963;-67
2023/06/25 01:24:13;;;;;;;;;;;;;;;;;;5045426;28;43119;-67
2023/06/25 01:26:39;;;;;;;;;;;;;;;;;;5043505;28;46800;-67
2023/06/25 01:29:05;;;;;;;;;;;;;;;;;;5043927;28;45798;-67
2023/06/25 01:31:31;;;;;;;;;;;;;;;;;;5044938;28;44944;-67
2023/06/25 01:33:58;;;;;;;;;;;;;;;;;;5043281;28;47209;-67
2023/06/25 01:36:24;;;;;;;;;;;;;;;;;;5044818;28;43828;-67
2023/06/25 01:38:51;;;;;;;;;;;;;;;;;;5048143;28;45906;-67
2023/06/25 01:41:17;;;;;;;;;;;;;;;;;;5048012;28;45859;-67
2023/06/25 01:43:43;;;;;;;;;;;;;;;;;;5048531;28;43651;-67
2023/06/25 01:46:10;;;;;;;;;;;;;;;;;;5047755;28;44085;-67
2023/06/25 01:48:36;;;;;;;;;;;;;;;;;;5046718;28;45717;-67
2023/06/25 01:51:02;;;;;;;;;;;;;;;;;;5063940;28;44805;-67
2023/06/25 01:53:28;;;;;;;;;;;;;;;;;;5048300;28;45748;-67
2023/06/25 01:55:55;;;;;;;;;;;;;;;;;;5062483;28;45454;-68
2023/06/25 01:58:21;;;;;;;;;;;;;;;;;;5064129;28;45386;-67
2023/06/25 02:00:48;;;;;;;;;;;;;;;;;;5048744;28;44476;-67
2023/06/25 02:03:14;;;;;;;;;;;;;;;;;;5047755;28;44673;-67
2023/06/25 02:05:42;;;;;;;;;;;;;;;;;;5048119;28;44305;-67
2023/06/25 02:08:08;;;;;;;;;;;;;;;;;;5047351;28;47208;-67
2023/06/25 02:10:34;;;;;;;;;;;;;;;;;;5030568;28;43937;-67
2023/06/25 02:13:01;;;;;;;;;;;;;;;;;;5048320;28;46475;-67
2023/06/25 02:15:27;;;;;;;;;;;;;;;;;;5047405;28;42321;-67
2023/06/25 02:17:53;;;;;;;;;;;;;;;;;;5046915;28;45810;-67
2023/06/25 02:20:19;;;;;;;;;;;;;;;;;;5047417;28;47270;-67
2023/06/25 02:22:47;;;;;;;;;;;;;;;;;;5046948;28;42089;-67
2023/06/25 02:25:14;;;;;;;;;;;;;;;;;;5046951;28;45386;-67
2023/06/25 02:27:40;;;;;;;;;;;;;;;;;;5047338;28;46052;-67
2023/06/25 02:30:06;;;;;;;;;;;;;;;;;;5047996;28;44161;-67
2023/06/25 02:32:33;;;;;;;;;;;;;;;;;;5046839;28;44919;-67
2023/06/25 02:34:59;;;;;;;;;;;;;;;;;;5047974;28;47043;-67
2023/06/25 02:37:25;;;;;;;;;;;;;;;;;;5046443;28;46479;-67
2023/06/25 02:39:51;;;;;;;;;;;;;;;;;;5046413;28;47358;-67
2023/06/25 02:42:18;;;;;;;;;;;;;;;;;;5046625;28;44973;-67
2023/06/25 02:44:44;;;;;;;;;;;;;;;;;;5046978;28;45580;-67
2023/06/25 02:47:10;;;;;;;;;;;;;;;;;;5046305;28;45892;-67
2023/06/25 02:49:37;;;;;;;;;;;;;;;;;;5046618;28;44024;-67
2023/06/25 02:52:03;;;;;;;;;;;;;;;;;;5045676;28;46453;-67
2023/06/25 02:54:29;;;;;;;;;;;;;;;;;;5047240;28;46960;-67
2023/06/25 02:56:57;;;;;;;;;;;;;;;;;;5047465;28;45159;-67
2023/06/25 02:59:24;;;;;;;;;;;;;;;;;;5060166;28;46434;-67
2023/06/25 03:01:50;;;;;;;;;;;;;;;;;;5053561;28;45141;-67
2023/06/25 03:04:16;;;;;;;;;;;;;;;;;;5047431;28;46469;-67
2023/06/25 03:06:43;;;;;;;;;;;;;;;;;;5045555;28;47351;-67
2023/06/25 03:09:09;;;;;;;;;;;;;;;;;;5046682;28;45679;-68
2023/06/25 03:11:35;;;;;;;;;;;;;;;;;;5046805;28;45623;-68
2023/06/25 03:14:01;;;;;;;;;;;;;;;;;;5046500;28;44941;-68
2023/06/25 03:16:28;;;;;;;;;;;;;;;;;;5046496;28;45214;-68
2023/06/25 03:18:54;;;;;;;;;;;;;;;;;;5045046;28;45804;-68
2023/06/25 03:21:20;;;;;;;;;;;;;;;;;;5045947;28;43950;-68
2023/06/25 03:23:47;;;;;;;;;;;;;;;;;;5047019;28;45719;-68
2023/06/25 03:26:13;;;;;;;;;;;;;;;;;;5046918;28;45764;-68
2023/06/25 03:28:39;;;;;;;;;;;;;;;;;;5054186;28;44769;-70
2023/06/25 03:31:05;;;;;;;;;;;;;;;;;;5043175;28;45284;-69
2023/06/25 03:33:32;;;;;;;;;;;;;;;;;;5047056;28;45192;-69
2023/06/25 03:35:58;;;;;;;;;;;;;;;;;;5045335;28;44793;-69
2023/06/25 03:38:24;;;;;;;;;;;;;;;;;;5046586;28;46543;-69
2023/06/25 03:40:50;;;;;;;;;;;;;;;;;;5046794;28;43963;-69
2023/06/25 03:43:17;;;;;;;;;;;;;;;;;;5043940;28;46386;-69
2023/06/25 03:45:43;;;;;;;;;;;;;;;;;;5045066;28;47274;-69
2023/06/25 03:48:09;;;;;;;;;;;;;;;;;;5045963;28;43611;-69
2023/06/25 03:50:36;;;;;;;;;;;;;;;;;;5045935;28;45549;-69
2023/06/25 03:53:02;;;;;;;;;;;;;;;;;;5046608;28;45925;-69
2023/06/25 03:55:29;;;;;;;;;;;;;;;;;;5045839;28;43434;-69
2023/06/25 03:57:55;;;;;;;;;;;;;;;;;;5046285;28;44313;-69
2023/06/25 04:00:21;;;;;;;;;;;;;;;;;;5042725;28;47240;-69
2023/06/25 04:02:47;;;;;;;;;;;;;;;;;;5045266;28;45615;-69
2023/06/25 04:05:14;;;;;;;;;;;;;;;;;;5044987;28;46063;-69
2023/06/25 04:07:40;;;;;;;;;;;;;;;;;;5045092;28;44149;-69
2023/06/25 04:10:06;;;;;;;;;;;;;;;;;;5046370;28;45298;-69
2023/06/25 04:12:33;;;;;;;;;;;;;;;;;;5046007;28;44766;-69
2023/06/25 04:14:59;;;;;;;;;;;;;;;;;;5045711;28;44760;-69
2023/06/25 04:17:26;;;;;;;;;;;;;;;;;;5043392;28;45434;-69
2023/06/25 04:19:52;;;;;;;;;;;;;;;;;;5045383;28;45639;-69
2023/06/25 04:22:18;;;;;;;;;;;;;;;;;;5046391;28;44742;-69
2023/06/25 04:24:44;;;;;;;;;;;;;;;;;;5045625;28;45808;-69
2023/06/25 04:27:11;;;;;;;;;;;;;;;;;;5045785;28;43951;-69
2023/06/25 04:29:37;;;;;;;;;;;;;;;;;;5045407;28;47157;-69
2023/06/25 04:32:03;;;;;;;;;;;;;;;;;;5043852;28;45859;-69
2023/06/25 04:34:30;;;;;;;;;;;;;;;;;;5044520;28;45888;-69
2023/06/25 04:36:56;;;;;;;;;;;;;;;;;;5045769;28;45642;-69
2023/06/25 04:39:22;;;;;;;;;;;;;;;;;;5044453;28;45712;-69
2023/06/25 04:41:49;;;;;;;;;;;;;;;;;;5043456;28;43762;-69
2023/06/25 04:44:15;;;;;;;;;;;;;;;;;;5045414;28;45927;-69
2023/06/25 04:46:41;;;;;;;;;;;;;;;;;;5035846;28;44537;-69
2023/06/25 04:49:07;;;;;;;;;;;;;;;;;;5043691;28;45249;-69
2023/06/25 04:51:34;;;;;;;;;;;;;;;;;;5033261;28;46941;-69
2023/06/25 04:54:00;;;;;;;;;;;;;;;;;;5044238;28;43801;-69
2023/06/25 04:56:27;;;;;;;;;;;;;;;;;;5031472;28;45843;-69
2023/06/25 04:58:53;;;;;;;;;;;;;;;;;;5045325;28;46862;-69
2023/06/25 05:01:19;;;;;;;;;;;;;;;;;;5044894;28;43995;-69
2023/06/25 05:03:46;;;;;;;;;;;;;;;;;;5044284;28;43519;-69
2023/06/25 05:06:12;;;;;;;;;;;;;;;;;;5044321;28;33658;-69
2023/06/25 05:08:38;;;;;;;;;;;;;;;;;;5043840;28;45491;-69
2023/06/25 05:11:04;;;;;;;;;;;;;;;;;;5045035;28;47114;-69
2023/06/25 05:13:32;;;;;;;;;;;;;;;;;;5045276;28;42157;-69
2023/06/25 05:15:58;;;;;;;;;;;;;;;;;;5043130;28;46784;-69
2023/06/25 05:18:24;;;;;;;;;;;;;;;;;;5043823;28;45687;-70
2023/06/25 05:20:51;;;;;;;;;;;;;;;;;;5043975;28;42729;-69
2023/06/25 05:23:17;;;;;;;;;;;;;;;;;;5045184;28;44737;-69
2023/06/25 05:25:43;;;;;;;;;;;;;;;;;;5045236;28;43625;-69
2023/06/25 05:28:09;;;;;;;;;;;;;;;;;;5043433;28;45308;-69
2023/06/25 05:30:36;;;;;;;;;;;;;;;;;;5042811;28;47101;-69
2023/06/25 05:33:02;;;;;;;;;;;;;;;;;;5043214;28;43909;-69
2023/06/25 05:35:29;;;;;;;;;;;;;;;;;;5044888;28;45722;-69
2023/06/25 05:37:56;;;;;;;;;;;;;;;;;;5044044;28;46607;-69
2023/06/25 05:40:22;;;;;;;;;;;;;;;;;;5042642;28;44159;-69
2023/06/25 05:42:48;;;;;;;;;;;;;;;;;;5044092;28;45308;-69
2023/06/25 05:45:14;;;;;;;;;;;;;;;;;;5044690;28;46706;-69
2023/06/25 05:47:41;;;;;;;;;;;;;;;;;;5062371;28;43914;-70
2023/06/25 05:50:07;;;;;;;;;;;;;;;;;;5065161;28;46888;-70
2023/06/25 05:52:34;;;;;;;;;;;;;;;;;;5064949;28;43653;-69
2023/06/25 05:55:00;;;;;;;;;;;;;;;;;;5065020;28;45457;-69
2023/06/25 05:57:26;;;;;;;;;;;;;;;;;;5063333;28;46032;-69
2023/06/25 05:59:53;;;;;;;;;;;;;;;;;;5064262;28;45015;-69
2023/06/25 06:02:19;;;;;;;;;;;;;;;;;;5050560;28;45871;-69
2023/06/25 06:04:45;;;;;;;;;;;;;;;;;;5057551;28;46042;-69
2023/06/25 06:07:12;;;;;;;;;;;;;;;;;;5056728;28;44219;-69
2023/06/25 06:09:38;;;;;;;;;;;;;;;;;;5065399;28;45059;-69
2023/06/25 06:12:05;;;;;;;;;;;;;;;;;;5064056;28;45359;-69
2023/06/25 06:14:31;;;;;;;;;;;;;;;;;;5063754;28;45423;-69
2023/06/25 06:16:57;;;;;;;;;;;;;;;;;;5064214;28;44971;-69
2023/06/25 06:19:23;;;;;;;;;;;;;;;;;;5064304;28;43603;-69
2023/06/25 06:21:50;;;;;;;;;;;;;;;;;;5062602;28;46161;-69
2023/06/25 06:24:16;;;;;;;;;;;;;;;;;;5065639;28;46901;-69
2023/06/25 06:26:42;;;;;;;;;;;;;;;;;;5065253;28;44667;-69
2023/06/25 06:29:09;;;;;;;;;;;;;;;;;;5076374;28;45619;-69
2023/06/25 06:31:37;;;;;;;;;;;;;;;;;;5067247;28;46008;-69
2023/06/25 06:34:04;;;;;;;;;;;;;;;;;;5053241;28;45652;-69
2023/06/25 06:36:30;;;;;;;;;;;;;;;;;;5060727;28;46853;-69
2023/06/25 06:38:56;;;;;;;;;;;;;;;;;;5067199;28;42151;-69
2023/06/25 06:41:22;;;;;;;;;;;;;;;;;;5066598;28;45344;-69
2023/06/25 06:43:49;;;;;;;;;;;;;;;;;;5066170;28;47669;-69
2023/06/25 06:46:15;;;;;;;;;;;;;;;;;;5066046;28;44815;-69
2023/06/25 06:48:43;;;;;;;;;;;;;;;;;;5067512;28;44386;-69
2023/06/25 06:51:09;;;;;;;;;;;;;;;;;;5066351;28;44980;-69
2023/06/25 06:53:35;;;;;;;;;;;;;;;;;;5067513;28;43945;-69
2023/06/25 06:56:02;;;;;;;;;;;;;;;;;;5066520;28;45966;-69
2023/06/25 06:58:28;;;;;;;;;;;;;;;;;;5064011;28;44918;-69
2023/06/25 07:00:54;;;;;;;;;;;;;;;;;;5062260;28;46664;-69
2023/06/25 07:03:20;;;;;;;;;;;;;;;;;;5066638;28;45808;-69
2023/06/25 07:05:47;;;;;;;;;;;;;;;;;;5066648;28;44897;-69
2023/06/25 07:08:13;;;;;;;;;;;;;;;;;;5062002;28;45722;-69
2023/06/25 07:10:39;;;;;;;;;;;;;;;;;;5046834;28;47422;-69
2023/06/25 07:13:06;;;;;;;;;;;;;;;;;;5070307;28;45820;-70
2023/06/25 07:15:32;;;;;;;;;;;;;;;;;;5066678;28;46442;-69
2023/06/25 07:17:58;;;;;;;;;;;;;;;;;;5066771;28;44778;-69
2023/06/25 07:20:25;;;;;;;;;;;;;;;;;;5066074;28;46473;-69
2023/06/25 07:22:51;;;;;;;;;;;;;;;;;;5061892;28;46080;-69
2023/06/25 07:25:17;;;;;;;;;;;;;;;;;;5048357;28;40797;-69
2023/06/25 07:27:43;;;;;;;;;;;;;;;;;;5066303;28;45368;-69
2023/06/25 07:30:10;;;;;;;;;;;;;;;;;;5065765;28;47093;-69
2023/06/25 07:32:36;;;;;;;;;;;;;;;;;;5066086;28;44043;-69
2023/06/25 07:35:02;;;;;;;;;;;;;;;;;;5064113;28;46701;-69
2023/06/25 07:37:29;;;;;;;;;;;;;;;;;;5066066;28;43716;-69
2023/06/25 07:39:55;;;;;;;;;;;;;;;;;;5065566;28;46345;-69
2023/06/25 07:42:21;;;;;;;;;;;;;;;;;;5065471;28;44110;-69
2023/06/25 07:44:48;;;;;;;;;;;;;;;;;;5067000;28;41867;-69
2023/06/25 07:47:21;;;;;;;;;;;;;;;;;;5043630;28;45417;-69
2023/06/25 07:49:48;;;;;;;;;;;;;;;;;;5044994;28;43702;-69
2023/06/25 07:52:14;;;;;;;;;;;;;;;;;;5046143;28;43731;-69
2023/06/25 07:54:40;;;;;;;;;;;;;;;;;;5045756;28;45425;-69
2023/06/25 07:57:06;;;;;;;;;;;;;;;;;;5045411;28;47143;-69
2023/06/25 07:59:33;;;;;;;;;;;;;;;;;;5042807;28;46634;-69
2023/06/25 08:02:16;;;;;;;;;;;;;;;;;;5044980;28;45356;-69
2023/06/25 08:04:42;;;;;;;;;;;;;;;;;;5045576;28;44863;-69
2023/06/25 08:07:09;;;;;;;;;;;;;;;;;;5045929;28;46734;-69
2023/06/25 08:09:35;;;;;;;;;;;;;;;;;;5044648;28;46036;-69
2023/06/25 08:12:01;;;;;;;;;;;;;;;;;;5045754;28;42586;-69
2023/06/25 08:14:28;;;;;;;;;;;;;;;;;;5044955;28;45316;-69
2023/06/25 08:16:54;;;;;;;;;;;;;;;;;;5045293;28;47124;-69
2023/06/25 08:19:20;;;;;;;;;;;;;;;;;;5045582;28;43557;-69
2023/06/25 08:21:46;;;;;;;;;;;;;;;;;;5045051;28;45991;-69
2023/06/25 08:24:13;;;;;;;;;;;;;;;;;;5044821;28;45254;-69
2023/06/25 08:26:39;;;;;;;;;;;;;;;;;;5044446;28;43702;-69
2023/06/25 08:29:05;;;;;;;;;;;;;;;;;;5044374;28;44069;-70
2023/06/25 08:31:32;;;;;;;;;;;;;;;;;;5044596;28;44885;-69
2023/06/25 08:33:58;;;;;;;;;;;;;;;;;;5045609;28;46356;-69
2023/06/25 08:36:24;;;;;;;;;;;;;;;;;;5045073;28;44761;-69
2023/06/25 08:38:51;;;;;;;;;;;;;;;;;;5045470;28;44203;-69
2023/06/25 08:41:17;;;;;;;;;;;;;;;;;;5044555;28;46789;-69
2023/06/25 08:43:44;;;;;;;;;;;;;;;;;;5045196;28;44832;-69
2023/06/25 08:46:10;;;;;;;;;;;;;;;;;;5052500;28;45405;-69
2023/06/25 08:48:36;;;;;;;;;;;;;;;;;;5064590;28;45923;-69
2023/06/25 08:51:02;;;;;;;;;;;;;;;;;;5055153;28;44829;-69
2023/06/25 08:53:29;;;;;;;;;;;;;;;;;;5051862;28;44078;-69
2023/06/25 08:55:58;;;;;;;;;;;;;;;;;;5063769;28;46773;-69
2023/06/25 08:58:25;;;;;;;;;;;;;;;;;;5055283;28;43643;-69
2023/06/25 09:00:51;;;;;;;;;;;;;;;;;;5045098;28;45306;-69
2023/06/25 09:03:17;;;;;;;;;;;;;;;;;;5045560;28;47134;-69
2023/06/25 09:05:44;;;;;;;;;;;;;;;;;;5052151;28;46371;-69
2023/06/25 09:08:10;;;;;;;;;;;;;;;;;;5061383;28;46806;-69
2023/06/25 09:10:36;;;;;;;;;;;;;;;;;;5044735;28;45305;-69
2023/06/25 09:13:03;;;;;;;;;;;;;;;;;;5045294;28;45736;-70
2023/06/25 09:15:29;;;;;;;;;;;;;;;;;;5064546;28;46386;-70
2023/06/25 09:17:55;;;;;;;;;;;;;;;;;;5063936;28;43799;-70
2023/06/25 09:20:22;;;;;;;;;;;;;;;;;;5046647;28;46467;-70
2023/06/25 09:22:48;;;;;;;;;;;;;;;;;;5064210;28;45446;-70
2023/06/25 09:25:14;;;;;;;;;;;;;;;;;;5046997;28;46782;-70
2023/06/25 09:27:41;;;;;;;;;;;;;;;;;;5044456;28;47344;-68
2023/06/25 09:30:07;;;;;;;;;;;;;;;;;;5049113;28;43916;-70
2023/06/25 09:32:33;;;;;;;;;;;;;;;;;;5065124;28;44305;-69
2023/06/25 09:35:00;;;;;;;;;;;;;;;;;;5065106;28;44887;-69
2023/06/25 09:37:26;;;;;;;;;;;;;;;;;;5064757;28;45115;-69
2023/06/25 09:39:52;;;;;;;;;;;;;;;;;;5062565;28;45602;-70
2023/06/25 09:42:18;;;;;;;;;;;;;;;;;;5063169;28;46243;-70
2023/06/25 09:44:45;;;;;;;;;;;;;;;;;;5064350;28;42669;-70
2023/06/25 09:47:12;;;;;;;;;;;;;;;;;;5045502;28;47115;-70
2023/06/25 09:49:39;;;;;;;;;;;;;;;;;;5042771;28;43747;-68
2023/06/25 09:52:05;;;;;;;;;;;;;;;;;;5042045;28;46843;-68
2023/06/25 09:54:31;;;;;;;;;;;;;;;;;;5042989;28;46100;-68
2023/06/25 09:56:57;;;;;;;;;;;;;;;;;;5043157;28;44960;-68
2023/06/25 09:59:26;;;;;;;;;;;;;;;;;;5046848;28;45369;-68
2023/06/25 10:01:52;;;;;;;;;;;;;;;;;;5046229;28;46937;-68
2023/06/25 10:04:19;;;;;;;;;;;;;;;;;;5046592;28;45022;-68
2023/06/25 10:06:45;;;;;;;;;;;;;;;;;;5045482;28;46728;-68
2023/06/25 10:09:11;;;;;;;;;;;;;;;;;;5047785;28;44361;-68
2023/06/25 10:11:38;;;;;;;;;;;;;;;;;;5047209;28;45358;-68
2023/06/25 10:14:04;;;;;;;;;;;;;;;;;;5046430;28;45706;-70
2023/06/25 10:16:30;;;;;;;;;;;;;;;;;;5046566;28;43711;-70
2023/06/25 10:19:04;;;;;;;;;;;;;;;;;;5047185;28;45046;-68
2023/06/25 10:21:30;;;;;;;;;;;;;;;;;;5046663;28;45840;-68
2023/06/25 10:23:57;;;;;;;;;;;;;;;;;;5045982;28;43689;-70
2023/06/25 10:26:23;;;;;;;;;;;;;;;;;;5049594;28;44608;-68
2023/06/25 10:28:49;;;;;;;;;;;;;;;;;;5043173;28;47144;-67
2023/06/25 10:31:15;;;;;;;;;;;;;;;;;;5044094;28;45746;-66
2023/06/25 10:33:42;;;;;;;;;;;;;;;;;;5043591;28;47181;-64
2023/06/25 10:36:10;;;;;;;;;;;;;;;;;;5061787;28;44025;-66
2023/06/25 10:38:36;;;;;;;;;;;;;;;;;;5045937;28;46507;-67
2023/06/25 10:41:02;;;;;;;;;;;;;;;;;;5046299;28;45661;-67
2023/06/25 10:43:28;;;;;;;;;;;;;;;;;;5046370;28;45420;-67
2023/06/25 10:45:55;;;;;;;;;;;;;;;;;;5052449;28;46687;-67
2023/06/25 10:48:21;;;;;;;;;;;;;;;;;;5063407;28;46469;-67
2023/06/25 10:50:48;;;;;;;;;;;;;;;;;;5065707;28;42295;-67
2023/06/25 10:53:14;;;;;;;;;;;;;;;;;;5067134;28;45480;-67
2023/06/25 10:55:41;;;;;;;;;;;;;;;;;;5064839;28;44795;-68
2023/06/25 10:58:07;;;;;;;;;;;;;;;;;;5066615;28;46740;-68
2023/06/25 11:00:34;;;;;;;;;;;;;;;;;;5065637;28;45934;-67
2023/06/25 11:03:01;;;;;;;;;;;;;;;;;;5065778;28;43742;-67
2023/06/25 11:05:27;;;;;;;;;;;;;;;;;;5065891;28;46420;-67
2023/06/25 11:07:54;;;;;;;;;;;;;;;;;;5066470;28;45822;-67
2023/06/25 11:10:20;;;;;;;;;;;;;;;;;;5066331;28;43734;-67
2023/06/25 11:12:47;;;;;;;;;;;;;;;;;;5055582;28;44148;-68
2023/06/25 11:15:13;;;;;;;;;;;;;;;;;;5046053;28;42458;-67
2023/06/25 11:17:39;;;;;;;;;;;;;;;;;;5046462;28;46814;-67
2023/06/25 11:20:06;;;;;;;;;;;;;;;;;;5057701;28;46594;-67
2023/06/25 11:22:32;;;;;;;;;;;;;;;;;;5066603;28;43950;-67
2023/06/25 11:24:59;;;;;;;;;;;;;;;;;;5064189;28;46437;-68
2023/06/25 11:27:25;;;;;;;;;;;;;;;;;;5065242;28;47539;-67
2023/06/25 11:29:52;;;;;;;;;;;;;;;;;;5058796;28;43702;-68
2023/06/25 11:32:18;;;;;;;;;;;;;;;;;;5066231;28;46674;-67
2023/06/25 11:34:44;;;;;;;;;;;;;;;;;;5064943;28;43913;-67
2023/06/25 11:37:11;;;;;;;;;;;;;;;;;;5048975;28;44490;-68
2023/06/25 11:39:37;;;;;;;;;;;;;;;;;;5064122;28;47212;-68
2023/06/25 11:42:03;;;;;;;;;;;;;;;;;;5065857;28;45193;-67
2023/06/25 11:44:30;;;;;;;;;;;;;;;;;;5062855;28;45498;-68
2023/06/25 11:46:57;;;;;;;;;;;;;;;;;;5042184;28;46790;-68
2023/06/25 11:49:25;;;;;;;;;;;;;;;;;;5044593;28;44806;-69
2023/06/25 11:51:51;;;;;;;;;;;;;;;;;;5045528;28;44530;-69
2023/06/25 11:54:18;;;;;;;;;;;;;;;;;;5046691;28;47413;-68
2023/06/25 11:56:44;;;;;;;;;;;;;;;;;;5045997;28;46479;-68
2023/06/25 11:59:10;;;;;;;;;;;;;;;;;;5044599;28;47291;-68
2023/06/25 12:01:36;;;;;;;;;;;;;;;;;;5045252;28;43254;-68
2023/06/25 12:04:03;;;;;;;;;;;;;;;;;;5044753;28;43796;-68
2023/06/25 12:06:29;;;;;;;;;;;;;;;;;;5044175;28;46388;-68
2023/06/25 12:08:56;;;;;;;;;;;;;;;;;;5045416;28;44741;-68
2023/06/25 12:11:22;;;;;;;;;;;;;;;;;;5045467;28;45525;-68
2023/06/25 12:13:48;;;;;;;;;;;;;;;;;;5046021;28;45718;-68
2023/06/25 12:16:14;;;;;;;;;;;;;;;;;;5044980;28;43256;-68
2023/06/25 12:18:41;;;;;;;;;;;;;;;;;;5044330;28;44747;-68
2023/06/25 12:21:07;;;;;;;;;;;;;;;;;;5025199;28;44849;-68
2023/06/25 12:23:33;;;;;;;;;;;;;;;;;;5025887;28;44193;-68
2023/06/25 12:26:00;;;;;;;;;;;;;;;;;;5041195;28;44715;-68
2023/06/25 12:28:26;;;;;;;;;;;;;;;;;;5044599;28;44746;-68
2023/06/25 12:30:52;;;;;;;;;;;;;;;;;;5044737;28;45401;-69
2023/06/25 12:33:18;;;;;;;;;;;;;;;;;;5043638;28;46347;-68
2023/06/25 12:35:45;;;;;;;;;;;;;;;;;;5036095;28;43502;-68
2023/06/25 12:38:11;;;;;;;;;;;;;;;;;;5039381;28;45845;-68
2023/06/25 12:40:37;;;;;;;;;;;;;;;;;;5043352;28;43984;-68
2023/06/25 12:43:04;;;;;;;;;;;;;;;;;;5044259;28;46495;-68
2023/06/25 12:45:30;;;;;;;;;;;;;;;;;;5045520;28;46045;-68
2023/06/25 12:47:56;;;;;;;;;;;;;;;;;;5059671;28;43724;-68
2023/06/25 12:50:23;;;;;;;;;;;;;;;;;;5065160;28;44408;-68
2023/06/25 12:52:49;;;;;;;;;;;;;;;;;;5058224;28;44673;-68
2023/06/25 12:55:15;;;;;;;;;;;;;;;;;;5063450;28;44302;-68
2023/06/25 12:57:41;;;;;;;;;;;;;;;;;;5062038;28;46579;-68
2023/06/25 13:00:08;;;;;;;;;;;;;;;;;;5064185;28;46197;-68
2023/06/25 13:02:40;;;;;;;;;;;;;;;;;;5060235;28;45224;-68
2023/06/25 13:05:06;;;;;;;;;;;;;;;;;;5062336;28;46856;-68
2023/06/25 13:07:32;;;;;;;;;;;;;;;;;;5073526;28;44839;-68
2023/06/25 13:09:59;;;;;;;;;;;;;;;;;;5065092;28;47146;-68
2023/06/25 13:12:25;;;;;;;;;;;;;;;;;;5056022;28;45698;-68
2023/06/25 13:14:51;;;;;;;;;;;;;;;;;;5062386;28;44808;-68
2023/06/25 13:17:19;;;;;;;;;;;;;;;;;;5050395;28;46758;-68
2023/06/25 13:19:45;;;;;;;;;;;;;;;;;;5043672;28;44473;-68
2023/06/25 13:22:12;;;;;;;;;;;;;;;;;;5064143;28;44780;-68
2023/06/25 13:24:38;;;;;;;;;;;;;;;;;;5063315;28;45707;-68
2023/06/25 13:27:04;;;;;;;;;;;;;;;;;;5061932;28;44956;-68
2023/06/25 13:29:31;;;;;;;;;;;;;;;;;;5063094;28;45923;-68
2023/06/25 13:31:57;;;;;;;;;;;;;;;;;;5064675;28;45644;-68
2023/06/25 13:34:23;;;;;;;;;;;;;;;;;;5066684;28;45017;-68
2023/06/25 13:36:50;;;;;;;;;;;;;;;;;;5065274;28;44402;-68
2023/06/25 13:39:16;;;;;;;;;;;;;;;;;;5067110;28;45935;-68
2023/06/25 13:41:42;;;;;;;;;;;;;;;;;;5067937;28;44118;-68
2023/06/25 13:44:09;;;;;;;;;;;;;;;;;;5066279;28;46878;-68
2023/06/25 13:46:35;;;;;;;;;;;;;;;;;;5067502;28;44858;-68
2023/06/25 13:49:02;;;;;;;;;;;;;;;;;;5064368;28;45424;-68
2023/06/25 13:51:28;;;;;;;;;;;;;;;;;;5064403;28;45998;-68
2023/06/25 13:53:54;;;;;;;;;;;;;;;;;;5067685;28;45354;-68
2023/06/25 13:56:21;;;;;;;;;;;;;;;;;;5068059;28;46845;-68
2023/06/25 13:58:47;;;;;;;;;;;;;;;;;;5066808;28;45821;-68
2023/06/25 14:01:13;;;;;;;;;;;;;;;;;;5065565;28;45006;-68
2023/06/25 14:03:40;;;;;;;;;;;;;;;;;;5063599;28;45758;-68
2023/06/25 14:06:06;;;;;;;;;;;;;;;;;;5064440;28;43385;-68
2023/06/25 14:08:32;;;;;;;;;;;;;;;;;;5065883;28;45763;-68
2023/06/25 14:10:59;;;;;;;;;;;;;;;;;;5061762;28;47551;-68
2023/06/25 14:13:25;;;;;;;;;;;;;;;;;;5059294;28;44077;-68
2023/06/25 14:15:52;;;;;;;;;;;;;;;;;;5066821;28;45774;-68
2023/06/25 14:18:31;;;;;;;;;;;;;;;;;;5067378;28;47080;-68
2023/06/25 14:20:57;;;;;;;;;;;;;;;;;;5067424;28;43408;-66
2023/06/25 14:23:24;;;;;;;;;;;;;;;;;;5067036;28;46630;-68
2023/06/25 14:25:52;;;;;;;;;;;;;;;;;;5066441;28;45721;-68
2023/06/25 14:28:18;;;;;;;;;;;;;;;;;;5065328;28;46536;-68
2023/06/25 14:30:44;;;;;;;;;;;;;;;;;;5060964;28;44287;-68
2023/06/25 14:33:12;;;;;;;;;;;;;;;;;;5060433;28;46603;-68
2023/06/25 14:35:38;;;;;;;;;;;;;;;;;;5065668;28;45720;-68
2023/06/25 14:38:04;;;;;;;;;;;;;;;;;;5065762;28;45626;-68
2023/06/25 14:40:31;;;;;;;;;;;;;;;;;;5065909;28;43398;-68
2023/06/25 14:42:57;;;;;;;;;;;;;;;;;;5064756;28;46211;-68
2023/06/25 14:45:24;;;;;;;;;;;;;;;;;;5061873;28;47245;-68
2023/06/25 14:47:50;;;;;;;;;;;;;;;;;;5047163;28;44170;-68
2023/06/25 14:50:16;;;;;;;;;;;;;;;;;;5044874;28;44463;-67
2023/06/25 14:52:43;;;;;;;;;;;;;;;;;;5045925;28;44528;-68
2023/06/25 14:55:09;;;;;;;;;;;;;;;;;;5045518;28;45345;-68
2023/06/25 14:57:35;;;;;;;;;;;;;;;;;;5045430;28;44826;-67
2023/06/25 15:00:02;;;;;;;;;;;;;;;;;;5046195;28;43818;-68
2023/06/25 15:02:28;;;;;;;;;;;;;;;;;;5044423;28;45341;-68
2023/06/25 15:04:55;;;;;;;;;;;;;;;;;;5044041;28;44667;-68
2023/06/25 15:07:21;;;;;;;;;;;;;;;;;;5046103;28;45020;-68
2023/06/25 15:09:47;;;;;;;;;;;;;;;;;;5046463;28;45986;-68
2023/06/25 15:12:14;;;;;;;;;;;;;;;;;;5046706;28;44907;-68
2023/06/25 15:14:40;;;;;;;;;;;;;;;;;;5045422;28;45606;-68
2023/06/25 15:17:08;;;;;;;;;;;;;;;;;;5033846;28;44986;-68
2023/06/25 15:19:36;;;;;;;;;;;;;;;;;;5045318;28;41981;-68
2023/06/25 15:22:03;;;;;;;;;;;;;;;;;;5045455;28;45761;-68
2023/06/25 15:24:29;;;;;;;;;;;;;;;;;;5046284;28;45802;-68
2023/06/25 15:26:56;;;;;;;;;;;;;;;;;;5044390;28;43379;-68
2023/06/25 15:29:22;;;;;;;;;;;;;;;;;;5044600;28;45330;-67
2023/06/25 15:31:48;;;;;;;;;;;;;;;;;;5046558;28;33244;-68
2023/06/25 15:34:15;;;;;;;;;;;;;;;;;;5043387;28;46290;-68
2023/06/25 15:36:42;;;;;;;;;;;;;;;;;;5045252;28;46813;-68
2023/06/25 15:39:08;;;;;;;;;;;;;;;;;;5042537;28;42489;-68
2023/06/25 15:41:35;;;;;;;;;;;;;;;;;;5044640;28;43934;-68
2023/06/25 15:44:02;;;;;;;;;;;;;;;;;;5042592;28;45940;-68
2023/06/25 15:46:28;;;;;;;;;;;;;;;;;;5057176;28;43618;-68
2023/06/25 15:48:54;;;;;;;;;;;;;;;;;;5065782;28;45530;-68
2023/06/25 15:51:21;;;;;;;;;;;;;;;;;;5065787;28;44998;-68
2023/06/25 15:53:47;;;;;;;;;;;;;;;;;;5065956;28;45960;-68
2023/06/25 15:56:13;;;;;;;;;;;;;;;;;;5063656;28;46961;-68
2023/06/25 15:58:40;;;;;;;;;;;;;;;;;;5064493;28;44010;-68
2023/06/25 16:01:06;;;;;;;;;;;;;;;;;;5058704;28;45420;-68
2023/06/25 16:03:33;;;;;;;;;;;;;;;;;;5058959;28;47103;-68
2023/06/25 16:05:59;;;;;;;;;;;;;;;;;;5063951;28;44952;-68
2023/06/25 16:08:25;;;;;;;;;;;;;;;;;;5060311;28;46719;-68
2023/06/25 16:10:52;;;;;;;;;;;;;;;;;;5051572;28;45801;-68
2023/06/25 16:13:18;;;;;;;;;;;;;;;;;;5065989;28;43637;-68
2023/06/25 16:15:44;;;;;;;;;;;;;;;;;;5064259;28;44618;-69
2023/06/25 16:18:11;;;;;;;;;;;;;;;;;;5065143;28;44108;-68
2023/06/25 16:20:37;;;;;;;;;;;;;;;;;;5061033;28;45296;-69
2023/06/25 16:23:03;;;;;;;;;;;;;;;;;;5063262;28;45975;-68
2023/06/25 16:25:29;;;;;;;;;;;;;;;;;;5064406;28;44907;-68
2023/06/25 16:27:56;;;;;;;;;;;;;;;;;;5047431;28;45281;-68
2023/06/25 16:30:22;;;;;;;;;;;;;;;;;;5056266;28;44781;-68
2023/06/25 16:32:50;;;;;;;;;;;;;;;;;;5057508;28;44885;-68
2023/06/25 16:35:16;;;;;;;;;;;;;;;;;;5061348;28;46455;-68
2023/06/25 16:37:43;;;;;;;;;;;;;;;;;;5047276;28;42497;-69
2023/06/25 16:40:09;;;;;;;;;;;;;;;;;;5049907;28;44294;-68